Time;durP1;ratioP1;P1;durP2;ratioP2;P2;SDS_P1;SDS_P2;PMS_P1;PMS_P2;Temp;Humidity;BMP_temperature;BMP_pressure;BME280_temperature;BME280_humidity;BME280_pressure;Samples;Min_cycle;Max_cycle;Signal;HPM_P1;HPM_P2
2021/10/28 00:12:45;;;;;;;24.63;23.10;;;;;;;;;;5052990;28;20863;-85
2021/10/28 00:15:26;;;;;;;25.47;23.60;;;;;;;;;;5052910;28;20538;-84
2021/10/28 00:18:13;;;;;;;25.07;23.17;;;;;;;;;;5053321;28;20442;-85
2021/10/28 00:20:40;;;;;;;24.40;22.90;;;;;;;;;;5052001;28;20458;-85
2021/10/28 00:23:09;;;;;;;24.73;23.13;;;;;;;;;;5052981;28;20424;-85
2021/10/28 00:25:38;;;;;;;26.27;24.37;;;;;;;;;;5053220;28;20448;-85
2021/10/28 00:28:06;;;;;;;25.20;23.50;;;;;;;;;;5052538;28;20534;-84
2021/10/28 00:30:33;;;;;;;24.90;23.03;;;;;;;;;;5053082;28;20501;-85
2021/10/28 00:33:02;;;;;;;23.43;22.03;;;;;;;;;;5053237;28;20435;-86
2021/10/28 00:35:30;;;;;;;24.73;22.60;;;;;;;;;;5052788;28;20435;-85
2021/10/28 00:37:58;;;;;;;22.83;21.33;;;;;;;;;;5052764;28;20451;-85
2021/10/28 00:40:26;;;;;;;24.30;22.40;;;;;;;;;;5052650;28;20504;-85
2021/10/28 00:42:55;;;;;;;23.10;21.50;;;;;;;;;;5052920;28;20432;-84
2021/10/28 00:45:25;;;;;;;23.70;22.10;;;;;;;;;;5052442;28;20553;-85
2021/10/28 00:47:53;;;;;;;23.60;22.10;;;;;;;;;;5051349;28;20997;-85
2021/10/28 00:50:22;;;;;;;23.77;22.27;;;;;;;;;;5056588;28;20467;-83
2021/10/28 00:52:49;;;;;;;23.77;22.27;;;;;;;;;;5056163;28;20471;-85
2021/10/28 00:55:17;;;;;;;23.90;22.50;;;;;;;;;;5056470;28;20442;-85
2021/10/28 00:57:46;;;;;;;24.73;23.10;;;;;;;;;;5056521;28;20523;-85
2021/10/28 01:00:14;;;;;;;23.63;22.10;;;;;;;;;;5056335;28;20773;-85
2021/10/28 01:02:41;;;;;;;24.93;23.40;;;;;;;;;;5056218;28;20462;-85
2021/10/28 01:05:09;;;;;;;24.80;23.10;;;;;;;;;;5056123;28;20464;-85
2021/10/28 01:07:37;;;;;;;25.27;23.53;;;;;;;;;;5056319;28;20424;-85
2021/10/28 01:10:05;;;;;;;25.43;23.73;;;;;;;;;;5056291;28;20970;-85
2021/10/28 01:12:33;;;;;;;23.80;22.10;;;;;;;;;;5055908;28;20556;-85
2021/10/28 01:15:00;;;;;;;23.27;21.87;;;;;;;;;;5055927;28;21265;-85
2021/10/28 01:17:31;;;;;;;23.10;21.40;;;;;;;;;;5056160;28;20409;-85
2021/10/28 01:20:00;;;;;;;23.03;21.53;;;;;;;;;;5055097;28;20437;-86
2021/10/28 01:22:27;;;;;;;22.33;21.00;;;;;;;;;;5055940;28;20493;-86
2021/10/28 01:24:55;;;;;;;22.40;21.00;;;;;;;;;;5054662;28;20838;-85
2021/10/28 01:27:22;;;;;;;23.27;21.50;;;;;;;;;;5056109;28;20420;-84
2021/10/28 01:29:49;;;;;;;25.40;23.57;;;;;;;;;;5055512;28;20429;-85
2021/10/28 01:32:17;;;;;;;24.10;22.40;;;;;;;;;;5055422;28;20419;-85
2021/10/28 01:34:44;;;;;;;24.75;22.92;;;;;;;;;;5055243;28;20424;-85
2021/10/28 01:37:14;;;;;;;24.13;22.17;;;;;;;;;;5055334;28;20195;-85
2021/10/28 01:39:42;;;;;;;22.93;21.53;;;;;;;;;;5055225;28;20460;-85
2021/10/28 01:42:10;;;;;;;24.03;22.47;;;;;;;;;;5055741;28;20778;-85
2021/10/28 01:44:38;;;;;;;23.70;21.90;;;;;;;;;;5055132;28;20486;-85
2021/10/28 01:47:06;;;;;;;24.27;22.67;;;;;;;;;;5054238;28;20451;-85
2021/10/28 01:49:34;;;;;;;22.77;21.17;;;;;;;;;;5055606;28;20413;-85
2021/10/28 01:52:01;;;;;;;24.30;22.70;;;;;;;;;;5055124;28;20195;-85
2021/10/28 01:54:30;;;;;;;24.33;22.53;;;;;;;;;;5055322;28;20440;-85
2021/10/28 01:56:58;;;;;;;23.80;22.30;;;;;;;;;;5055217;28;20478;-85
2021/10/28 01:59:25;;;;;;;23.07;21.67;;;;;;;;;;5054955;28;20665;-85
2021/10/28 02:01:53;;;;;;;24.20;22.60;;;;;;;;;;5055048;28;20556;-84
2021/10/28 02:04:20;;;;;;;22.87;21.37;;;;;;;;;;5055077;28;20211;-85
2021/10/28 02:06:48;;;;;;;24.93;23.33;;;;;;;;;;5055052;28;20436;-85
2021/10/28 02:09:16;;;;;;;24.77;23.07;;;;;;;;;;5054953;28;20446;-85
2021/10/28 02:11:45;;;;;;;23.57;21.93;;;;;;;;;;5054655;28;20565;-85
2021/10/28 02:14:12;;;;;;;23.03;21.30;;;;;;;;;;5054930;28;20413;-85
2021/10/28 02:16:40;;;;;;;22.27;20.97;;;;;;;;;;5054952;28;20418;-85
2021/10/28 02:19:07;;;;;;;24.10;22.50;;;;;;;;;;5054647;28;20945;-85
2021/10/28 02:21:35;;;;;;;23.63;22.17;;;;;;;;;;5054986;28;20413;-85
2021/10/28 02:24:02;;;;;;;23.60;21.73;;;;;;;;;;5054568;28;20524;-85
2021/10/28 02:26:30;;;;;;;22.83;21.43;;;;;;;;;;5054610;28;20202;-85
2021/10/28 02:28:59;;;;;;;24.07;22.47;;;;;;;;;;5054670;28;20413;-85
2021/10/28 02:31:26;;;;;;;23.77;22.27;;;;;;;;;;5054626;28;20498;-85
2021/10/28 02:33:53;;;;;;;23.83;22.37;;;;;;;;;;5054837;28;20407;-85
2021/10/28 02:36:21;;;;;;;24.00;22.07;;;;;;;;;;5054552;28;20445;-84
2021/10/28 02:38:49;;;;;;;24.30;22.70;;;;;;;;;;5054192;28;20532;-85
2021/10/28 02:41:16;;;;;;;24.97;23.17;;;;;;;;;;5054358;28;20210;-84
2021/10/28 02:43:43;;;;;;;25.53;23.07;;;;;;;;;;5054037;28;20420;-85
2021/10/28 02:46:12;;;;;;;23.10;21.40;;;;;;;;;;5054171;28;20858;-84
2021/10/28 02:48:39;;;;;;;24.97;23.00;;;;;;;;;;5054295;28;20448;-85
2021/10/28 02:51:07;;;;;;;24.33;22.60;;;;;;;;;;5052794;28;20449;-84
2021/10/28 02:53:34;;;;;;;23.47;21.87;;;;;;;;;;5054129;28;20446;-85
2021/10/28 02:56:02;;;;;;;22.87;21.27;;;;;;;;;;5054137;28;20431;-84
2021/10/28 02:58:29;;;;;;;26.53;24.43;;;;;;;;;;5054216;28;20455;-85
2021/10/28 03:00:57;;;;;;;24.13;22.63;;;;;;;;;;5054297;28;20436;-85
2021/10/28 03:03:26;;;;;;;24.17;22.10;;;;;;;;;;5053940;28;20254;-84
2021/10/28 03:05:53;;;;;;;24.43;22.93;;;;;;;;;;5053788;28;20485;-85
2021/10/28 03:08:21;;;;;;;24.13;22.25;;;;;;;;;;5053791;28;20432;-85
2021/10/28 03:10:48;;;;;;;23.53;21.70;;;;;;;;;;5053422;28;20235;-85
2021/10/28 03:13:19;;;;;;;24.77;23.00;;;;;;;;;;5053818;28;20449;-83
2021/10/28 03:15:48;;;;;;;25.07;22.70;;;;;;;;;;5053558;28;20949;-84
2021/10/28 03:26:34;;;;;;;25.10;23.40;;;;;;;;;;5036018;28;20576;-84
2021/10/28 03:29:01;;;;;;;25.40;23.30;;;;;;;;;;5053701;28;20436;-86
2021/10/28 03:31:29;;;;;;;26.73;24.85;;;;;;;;;;5052261;28;20457;-85
2021/10/28 03:33:56;;;;;;;25.50;23.70;;;;;;;;;;5053654;28;20203;-84
2021/10/28 03:36:38;;;;;;;25.95;23.98;;;;;;;;;;5053488;28;20457;-84
2021/10/28 03:39:17;;;;;;;25.33;23.63;;;;;;;;;;5053484;28;20604;-83
2021/10/28 03:42:12;;;;;;;25.70;23.90;;;;;;;;;;5053525;28;20819;-85
2021/10/28 04:20:44;;;;;;;30.80;27.92;;;;;;;;;;5053510;28;20473;-89
2021/10/28 04:28:55;;;;;;;28.43;26.30;;;;;;;;;;5057195;28;20247;-90
2021/10/28 04:31:24;;;;;;;29.10;26.63;;;;;;;;;;5057557;28;20801;-87
2021/10/28 04:33:52;;;;;;;31.17;28.57;;;;;;;;;;5057412;28;20558;-94
2021/10/28 04:36:19;;;;;;;30.02;27.58;;;;;;;;;;5057215;28;20460;-93
2021/10/28 04:38:46;;;;;;;33.97;30.93;;;;;;;;;;5056886;28;20242;-90
2021/10/28 04:41:15;;;;;;;29.33;26.88;;;;;;;;;;5057142;28;20446;-91
2021/10/28 04:43:42;;;;;;;29.83;27.38;;;;;;;;;;5057183;28;20193;-87
2021/10/28 04:46:10;;;;;;;30.48;28.08;;;;;;;;;;5056646;28;20216;-87
2021/10/28 04:48:38;;;;;;;31.30;28.50;;;;;;;;;;5057103;28;20208;-93
2021/10/28 04:51:05;;;;;;;29.40;26.90;;;;;;;;;;5056942;28;20468;-94
2021/10/28 04:53:32;;;;;;;30.80;28.30;;;;;;;;;;5056981;28;20204;-89
2021/10/28 04:56:00;;;;;;;30.48;27.58;;;;;;;;;;5057143;28;20923;-87
2021/10/28 04:58:28;;;;;;;29.35;27.25;;;;;;;;;;5054574;28;20190;-87
2021/10/28 05:00:56;;;;;;;30.00;27.60;;;;;;;;;;5056698;28;20198;-90
2021/10/28 05:03:24;;;;;;;29.90;27.40;;;;;;;;;;5056447;28;20208;-90
2021/10/28 05:05:51;;;;;;;30.77;27.90;;;;;;;;;;5056489;28;20227;-89
2021/10/28 05:08:19;;;;;;;28.08;25.98;;;;;;;;;;5057177;28;20461;-89
2021/10/28 05:10:46;;;;;;;28.33;26.03;;;;;;;;;;5057185;28;20192;-89
2021/10/28 05:13:15;;;;;;;29.30;26.55;;;;;;;;;;5056737;28;20461;-88
2021/10/28 05:15:45;;;;;;;30.80;28.05;;;;;;;;;;5056725;28;20216;-89
2021/10/28 05:18:13;;;;;;;30.27;28.07;;;;;;;;;;5038824;28;20199;-88
2021/10/28 05:20:40;;;;;;;33.60;29.65;;;;;;;;;;5056458;28;20530;-89
2021/10/28 05:23:10;;;;;;;34.90;31.48;;;;;;;;;;5056387;28;20203;-88
2021/10/28 05:25:38;;;;;;;29.00;26.67;;;;;;;;;;5056008;28;20228;-88
2021/10/28 05:28:06;;;;;;;31.90;29.13;;;;;;;;;;5055960;28;20231;-90
2021/10/28 05:30:33;;;;;;;29.30;27.20;;;;;;;;;;5056349;28;20230;-90
2021/10/28 05:33:05;;;;;;;29.30;27.05;;;;;;;;;;5054999;28;20501;-90
2021/10/28 05:35:32;;;;;;;28.70;26.58;;;;;;;;;;5055813;28;20207;-90
2021/10/28 05:38:00;;;;;;;30.70;27.95;;;;;;;;;;5055841;28;20196;-90
2021/10/28 05:40:27;;;;;;;28.60;26.30;;;;;;;;;;5055704;28;20234;-93
2021/10/28 05:42:55;;;;;;;28.40;26.30;;;;;;;;;;5054825;28;20432;-88
2021/10/28 05:45:23;;;;;;;31.27;28.50;;;;;;;;;;5056110;28;20482;-91
2021/10/28 05:47:50;;;;;;;28.02;25.85;;;;;;;;;;5055228;28;20424;-90
2021/10/28 05:50:22;;;;;;;32.30;29.40;;;;;;;;;;5055434;28;20631;-88
2021/10/28 05:52:51;;;;;;;32.40;29.33;;;;;;;;;;5055355;28;20441;-88
2021/10/28 05:55:20;;;;;;;32.47;29.43;;;;;;;;;;5055830;28;20589;-88
2021/10/28 05:57:47;;;;;;;33.93;30.53;;;;;;;;;;5054397;28;20490;-88
2021/10/28 06:00:15;;;;;;;34.28;30.73;;;;;;;;;;5055685;28;20483;-87
2021/10/28 06:02:43;;;;;;;31.67;29.17;;;;;;;;;;5055320;28;20215;-88
2021/10/28 06:05:11;;;;;;;32.40;29.60;;;;;;;;;;5054977;28;20497;-86
2021/10/28 06:07:40;;;;;;;32.95;30.15;;;;;;;;;;5054651;28;20192;-86
2021/10/28 06:10:08;;;;;;;30.63;28.13;;;;;;;;;;5055239;28;20184;-86
2021/10/28 06:12:37;;;;;;;31.73;28.88;;;;;;;;;;5055064;28;20231;-86
2021/10/28 06:15:06;;;;;;;32.92;29.92;;;;;;;;;;5053686;28;20215;-84
2021/10/28 06:17:38;;;;;;;32.50;29.60;;;;;;;;;;5054564;28;20206;-85
2021/10/28 06:20:06;;;;;;;35.10;31.53;;;;;;;;;;5054993;28;20437;-86
2021/10/28 06:22:33;;;;;;;33.67;30.58;;;;;;;;;;5053875;28;20443;-86
2021/10/28 06:25:02;;;;;;;35.10;31.40;;;;;;;;;;5054530;28;20627;-86
2021/10/28 06:27:30;;;;;;;32.80;29.80;;;;;;;;;;5054608;28;20210;-86
2021/10/28 06:29:57;;;;;;;33.30;30.30;;;;;;;;;;5054841;28;20197;-86
2021/10/28 06:32:24;;;;;;;34.13;31.23;;;;;;;;;;5054790;28;20203;-86
2021/10/28 06:34:51;;;;;;;32.58;29.75;;;;;;;;;;5054501;28;20192;-86
2021/10/28 06:37:19;;;;;;;33.60;30.70;;;;;;;;;;5054373;28;20213;-85
2021/10/28 06:39:46;;;;;;;32.55;29.85;;;;;;;;;;5053914;28;20460;-85
2021/10/28 06:42:15;;;;;;;35.53;32.00;;;;;;;;;;5053189;28;20236;-86
2021/10/28 06:44:43;;;;;;;36.45;32.78;;;;;;;;;;5054755;28;20199;-86
2021/10/28 06:47:11;;;;;;;33.40;30.30;;;;;;;;;;5053487;28;20226;-85
2021/10/28 06:49:40;;;;;;;34.73;31.60;;;;;;;;;;5054460;28;20207;-86
2021/10/28 06:52:10;;;;;;;35.27;32.37;;;;;;;;;;5054371;28;20445;-86
2021/10/28 06:54:39;;;;;;;35.05;32.03;;;;;;;;;;5054115;28;20809;-86
2021/10/28 07:02:49;;;;;;;33.38;30.42;;;;;;;;;;5012516;28;20291;-86
2021/10/28 07:05:16;;;;;;;33.67;30.70;;;;;;;;;;5012217;28;20226;-86
2021/10/28 07:07:43;;;;;;;33.23;30.47;;;;;;;;;;5012332;28;20414;-86
2021/10/28 07:10:13;;;;;;;32.75;29.83;;;;;;;;;;5012520;28;20414;-86
2021/10/28 07:12:52;;;;;;;33.10;30.50;;;;;;;;;;5012335;28;20319;-86
2021/10/28 07:15:25;;;;;;;31.73;29.23;;;;;;;;;;5012756;28;20200;-91
2021/10/28 08:13:34;;;;;;;32.87;30.17;;;;;;;;;;5131934;28;20418;-87
2021/10/28 08:18:56;;;;;;;30.27;28.00;;;;;;;;;;5131986;28;20459;-86
2021/10/28 08:21:36;;;;;;;29.73;27.40;;;;;;;;;;5131839;28;20468;-87
2021/10/28 08:24:08;;;;;;;30.43;28.13;;;;;;;;;;5132029;28;20413;-87
2021/10/28 08:29:23;;;;;;;29.80;27.47;;;;;;;;;;5131696;28;20426;-88
2021/10/28 08:31:51;;;;;;;28.57;26.47;;;;;;;;;;5131798;28;20456;-86
2021/10/28 08:34:23;;;;;;;29.50;27.20;;;;;;;;;;5131627;28;20431;-87
2021/10/28 08:36:53;;;;;;;29.03;26.93;;;;;;;;;;5131995;28;20432;-90
2021/10/28 08:39:21;;;;;;;28.90;26.70;;;;;;;;;;5132440;28;20412;-91
2021/10/28 08:41:49;;;;;;;27.70;25.57;;;;;;;;;;5131303;28;20493;-94
2021/10/28 08:44:18;;;;;;;30.70;28.30;;;;;;;;;;5131388;28;20437;-88
2021/10/28 08:46:46;;;;;;;30.50;28.03;;;;;;;;;;5131378;28;20958;-88
2021/10/28 08:49:19;;;;;;;31.70;28.97;;;;;;;;;;5113082;28;20422;-89
2021/10/28 08:51:57;;;;;;;28.93;26.80;;;;;;;;;;5130974;28;20410;-85
2021/10/28 09:00:22;;;;;;;29.97;27.70;;;;;;;;;;5130792;28;20503;-87
2021/10/28 09:23:53;;;;;;;28.67;26.67;;;;;;;;;;5082992;28;20414;-89
2021/10/28 09:25:21;;;;;;;30.80;28.17;;;;;;;;;;5116838;28;20492;-87
2021/10/28 09:27:57;;;;;;;28.97;26.73;;;;;;;;;;5116996;28;20443;-90
2021/10/28 09:30:37;;;;;;;27.70;25.40;;;;;;;;;;5117322;28;20906;-96
2021/10/28 09:33:09;;;;;;;29.03;26.73;;;;;;;;;;5117377;28;20410;-90
2021/10/28 09:44:41;;;;;;;27.53;25.33;;;;;;;;;;5117240;28;20479;-89
2021/10/28 09:47:31;;;;;;;27.87;25.67;;;;;;;;;;5117259;28;20471;-87
2021/10/28 09:50:08;;;;;;;25.60;23.80;;;;;;;;;;5116769;28;20453;-87
2021/10/28 09:52:36;;;;;;;25.33;23.60;;;;;;;;;;5116252;28;20479;-89
2021/10/28 09:57:58;;;;;;;24.83;23.10;;;;;;;;;;5115547;28;20503;-94
2021/10/28 10:00:37;;;;;;;25.40;23.73;;;;;;;;;;5116191;28;20487;-89
2021/10/28 10:03:22;;;;;;;24.63;23.03;;;;;;;;;;5116018;28;20442;-90
2021/10/28 10:05:56;;;;;;;25.47;23.17;;;;;;;;;;5116677;28;20441;-89
2021/10/28 10:08:24;;;;;;;24.03;22.20;;;;;;;;;;5116400;28;20480;-89
2021/10/28 10:10:51;;;;;;;25.33;23.37;;;;;;;;;;5115932;28;20551;-89
2021/10/28 10:13:22;;;;;;;24.00;22.20;;;;;;;;;;5116157;28;20430;-90
2021/10/28 10:15:51;;;;;;;23.30;21.73;;;;;;;;;;5116248;28;20472;-90
2021/10/28 10:18:22;;;;;;;23.60;22.00;;;;;;;;;;5116690;28;20510;-93
2021/10/28 10:20:53;;;;;;;22.70;21.30;;;;;;;;;;5115815;28;20504;-91
2021/10/28 10:23:41;;;;;;;23.50;21.83;;;;;;;;;;5115875;28;20468;-96
2021/10/28 11:16:04;;;;;;;19.97;18.80;;;;;;;;;;4992871;28;20415;-84
2021/10/28 12:46:12;;;;;;;19.90;18.70;;;;;;;;;;5068660;28;20575;-88
2021/10/28 13:03:12;;;;;;;21.00;19.70;;;;;;;;;;5008657;28;20451;-89
2021/10/28 13:06:09;;;;;;;21.33;20.00;;;;;;;;;;5061684;28;20492;-89
2021/10/28 13:28:23;;;;;;;21.47;20.17;;;;;;;;;;5052158;28;20411;-91
2021/10/28 13:50:24;;;;;;;22.13;20.83;;;;;;;;;;5014805;28;20419;-92
2021/10/28 13:53:19;;;;;;;21.20;20.00;;;;;;;;;;5014393;28;20436;-92
2021/10/28 13:58:51;;;;;;;22.13;20.80;;;;;;;;;;5014579;28;20632;-90
2021/10/28 14:18:42;;;;;;;21.97;20.77;;;;;;;;;;5013324;28;20495;-90
2021/10/28 14:24:00;;;;;;;22.50;21.10;;;;;;;;;;5075346;28;20483;-84
2021/10/28 14:38:12;;;;;;;21.20;20.00;;;;;;;;;;4953579;28;20500;-90
2021/10/28 15:27:46;;;;;;;22.63;21.23;;;;;;;;;;5074089;28;21043;-88
2021/10/28 15:30:17;;;;;;;21.67;20.57;;;;;;;;;;5074506;28;20437;-88
2021/10/28 15:33:18;;;;;;;22.47;20.97;;;;;;;;;;5074356;28;20412;-86
2021/10/28 15:35:43;;;;;;;21.97;20.67;;;;;;;;;;5073654;28;20440;-87
2021/10/28 15:41:18;;;;;;;21.60;20.40;;;;;;;;;;5073542;28;20533;-87
2021/10/28 16:01:00;;;;;;;22.90;21.50;;;;;;;;;;4972750;28;20432;-87
2021/10/28 16:22:43;;;;;;;22.43;20.77;;;;;;;;;;4972874;28;20434;-86
2021/10/28 16:25:11;;;;;;;23.90;22.50;;;;;;;;;;4970527;28;20456;-87
2021/10/28 16:27:40;;;;;;;23.80;22.40;;;;;;;;;;5031078;28;20480;-86
2021/10/28 16:30:08;;;;;;;23.50;22.00;;;;;;;;;;5031593;28;20418;-87
2021/10/28 16:32:36;;;;;;;23.33;21.90;;;;;;;;;;5031386;28;20406;-86
2021/10/28 16:35:05;;;;;;;23.83;21.97;;;;;;;;;;5065978;28;20452;-86
2021/10/28 16:37:33;;;;;;;24.37;22.80;;;;;;;;;;5073026;28;20492;-85
2021/10/28 16:40:00;;;;;;;24.60;23.00;;;;;;;;;;5073571;28;20779;-86
2021/10/28 16:42:28;;;;;;;23.70;22.17;;;;;;;;;;5073651;28;20826;-86
2021/10/28 16:44:57;;;;;;;25.63;23.87;;;;;;;;;;5073390;28;20438;-86
2021/10/28 16:47:25;;;;;;;25.13;23.60;;;;;;;;;;5073387;28;20439;-87
2021/10/28 16:49:53;;;;;;;25.03;23.43;;;;;;;;;;5071952;28;20464;-87
2021/10/28 16:52:20;;;;;;;24.70;22.90;;;;;;;;;;5072921;28;20412;-87
2021/10/28 16:54:47;;;;;;;24.93;23.40;;;;;;;;;;5073306;28;20438;-87
2021/10/28 16:57:15;;;;;;;24.73;23.23;;;;;;;;;;5072789;28;20538;-87
2021/10/28 16:59:42;;;;;;;24.40;22.90;;;;;;;;;;5073352;28;20409;-87
2021/10/28 17:02:11;;;;;;;23.73;22.30;;;;;;;;;;5072363;28;20798;-88
2021/10/28 17:04:39;;;;;;;24.60;22.93;;;;;;;;;;5077079;28;20438;-88
2021/10/28 17:07:06;;;;;;;26.10;24.37;;;;;;;;;;5076658;28;20420;-87
2021/10/28 17:09:33;;;;;;;26.53;24.73;;;;;;;;;;5076825;28;20452;-87
2021/10/28 17:12:01;;;;;;;26.10;24.40;;;;;;;;;;5076867;28;20441;-88
2021/10/28 17:14:28;;;;;;;25.93;24.23;;;;;;;;;;5076674;28;20439;-88
2021/10/28 17:16:56;;;;;;;25.47;23.97;;;;;;;;;;5076613;28;20475;-88
2021/10/28 17:19:26;;;;;;;27.37;25.47;;;;;;;;;;5076834;28;20446;-87
2021/10/28 17:21:53;;;;;;;26.83;24.93;;;;;;;;;;5076719;28;20440;-87
2021/10/28 17:24:33;;;;;;;26.60;24.80;;;;;;;;;;5076765;28;20416;-87
2021/10/28 17:27:01;;;;;;;26.53;24.57;;;;;;;;;;5076538;28;20455;-87
2021/10/28 17:29:28;;;;;;;26.47;24.47;;;;;;;;;;5076817;28;20446;-89
2021/10/28 17:31:57;;;;;;;24.90;23.30;;;;;;;;;;5076381;28;20453;-87
2021/10/28 17:34:26;;;;;;;24.30;22.80;;;;;;;;;;5075812;28;20533;-88
2021/10/28 17:36:53;;;;;;;26.10;24.30;;;;;;;;;;5076671;28;20463;-88
2021/10/28 17:39:22;;;;;;;26.47;24.70;;;;;;;;;;5077252;28;20458;-89
2021/10/28 17:41:50;;;;;;;25.90;24.20;;;;;;;;;;5076102;28;20908;-87
2021/10/28 17:44:17;;;;;;;27.23;25.23;;;;;;;;;;5076258;28;20412;-88
2021/10/28 17:46:45;;;;;;;26.07;24.27;;;;;;;;;;5076449;28;20481;-87
2021/10/28 17:49:12;;;;;;;25.73;23.90;;;;;;;;;;5076331;28;20412;-87
2021/10/28 17:51:41;;;;;;;25.50;23.70;;;;;;;;;;5075037;28;20441;-88
2021/10/28 17:54:11;;;;;;;26.37;24.77;;;;;;;;;;5076299;28;20817;-88
2021/10/28 17:56:38;;;;;;;28.03;26.13;;;;;;;;;;5075528;28;20448;-88
2021/10/28 17:59:06;;;;;;;26.70;24.83;;;;;;;;;;5076160;28;20445;-89
2021/10/28 18:01:33;;;;;;;28.93;26.80;;;;;;;;;;5078233;28;20884;-88
2021/10/28 18:04:01;;;;;;;29.47;27.30;;;;;;;;;;5076163;28;20427;-88
2021/10/28 18:06:29;;;;;;;28.80;26.70;;;;;;;;;;5076148;28;20425;-88
2021/10/28 18:09:00;;;;;;;29.13;27.03;;;;;;;;;;5075872;28;20515;-87
2021/10/28 18:11:28;;;;;;;28.63;26.53;;;;;;;;;;5075591;28;20498;-88
2021/10/28 18:13:57;;;;;;;28.80;26.90;;;;;;;;;;5075613;28;20432;-88
2021/10/28 18:16:25;;;;;;;29.57;27.50;;;;;;;;;;5075393;28;20491;-86
2021/10/28 18:18:53;;;;;;;29.40;27.30;;;;;;;;;;5075530;28;20442;-88
2021/10/28 18:21:21;;;;;;;28.77;26.77;;;;;;;;;;5075416;28;20445;-87
2021/10/28 18:23:50;;;;;;;29.30;27.30;;;;;;;;;;5075423;28;20916;-87
2021/10/28 18:26:19;;;;;;;29.93;28.03;;;;;;;;;;5075243;28;20484;-87
2021/10/28 18:28:47;;;;;;;29.30;27.20;;;;;;;;;;5074133;28;20453;-87
2021/10/28 18:31:14;;;;;;;29.00;27.00;;;;;;;;;;5075072;28;20448;-87
2021/10/28 18:33:43;;;;;;;28.93;26.93;;;;;;;;;;5075316;28;20416;-87
2021/10/28 18:36:12;;;;;;;30.40;28.00;;;;;;;;;;5075538;28;20430;-87
2021/10/28 18:38:44;;;;;;;29.10;26.57;;;;;;;;;;5074858;28;20463;-87
2021/10/28 18:41:12;;;;;;;30.40;28.13;;;;;;;;;;5075442;28;20442;-87
2021/10/28 18:43:41;;;;;;;31.43;28.97;;;;;;;;;;5074961;28;20464;-87
2021/10/28 18:46:09;;;;;;;32.57;30.17;;;;;;;;;;5074887;28;20429;-87
2021/10/28 18:48:37;;;;;;;31.90;29.50;;;;;;;;;;5075057;28;20468;-86
2021/10/28 18:51:06;;;;;;;31.93;29.53;;;;;;;;;;5075016;28;20528;-86
2021/10/28 18:53:38;;;;;;;33.83;30.83;;;;;;;;;;5074493;28;20408;-87
2021/10/28 18:56:06;;;;;;;33.87;31.17;;;;;;;;;;5074933;28;20781;-87
2021/10/28 18:58:33;;;;;;;32.77;30.23;;;;;;;;;;5074561;28;20463;-87
2021/10/28 19:01:02;;;;;;;32.77;30.23;;;;;;;;;;5074725;28;20419;-87
2021/10/28 19:03:31;;;;;;;33.20;30.50;;;;;;;;;;5073514;28;20955;-88
2021/10/28 19:05:59;;;;;;;33.13;30.60;;;;;;;;;;5074741;28;20439;-87
2021/10/28 19:08:26;;;;;;;36.03;33.07;;;;;;;;;;5074576;28;20841;-87
2021/10/28 19:10:54;;;;;;;35.47;32.63;;;;;;;;;;5074720;28;20451;-87
2021/10/28 19:13:21;;;;;;;35.23;32.30;;;;;;;;;;5073341;28;20441;-87
2021/10/28 19:15:49;;;;;;;38.20;35.00;;;;;;;;;;5073964;28;20432;-87
2021/10/28 19:18:18;;;;;;;34.77;32.00;;;;;;;;;;5074238;28;20482;-86
2021/10/28 19:20:45;;;;;;;37.27;34.17;;;;;;;;;;5074299;28;20495;-88
2021/10/28 19:23:13;;;;;;;37.60;34.50;;;;;;;;;;5074272;28;20477;-87
2021/10/28 19:25:41;;;;;;;36.67;33.47;;;;;;;;;;5072407;28;20452;-87
2021/10/28 19:28:09;;;;;;;37.17;33.90;;;;;;;;;;5073517;28;20465;-87
2021/10/28 19:30:40;;;;;;;38.07;34.63;;;;;;;;;;5073767;28;20420;-86
2021/10/28 19:33:12;;;;;;;37.23;33.90;;;;;;;;;;5074112;28;20412;-86
2021/10/28 19:35:43;;;;;;;37.33;34.20;;;;;;;;;;5073799;28;20446;-86
2021/10/28 19:38:19;;;;;;;37.90;34.67;;;;;;;;;;5073552;28;20499;-87
2021/10/28 19:41:03;;;;;;;38.90;35.20;;;;;;;;;;5073877;28;20901;-87
2021/10/28 19:46:18;;;;;;;39.30;35.37;;;;;;;;;;5073956;28;20463;-86
2021/10/28 19:48:46;;;;;;;40.83;37.13;;;;;;;;;;5073940;28;20479;-86
2021/10/28 19:51:15;;;;;;;37.47;34.17;;;;;;;;;;5072468;28;20434;-87
2021/10/28 19:53:42;;;;;;;39.83;36.13;;;;;;;;;;5073676;28;20935;-86
2021/10/28 19:56:11;;;;;;;41.20;37.37;;;;;;;;;;5073620;28;21242;-87
2021/10/28 19:58:39;;;;;;;43.00;38.87;;;;;;;;;;5073524;28;20843;-86
2021/10/28 20:01:14;;;;;;;41.67;37.50;;;;;;;;;;5073919;28;20441;-86
2021/10/28 20:03:59;;;;;;;39.60;36.00;;;;;;;;;;5073526;28;20437;-87
2021/10/28 20:06:42;;;;;;;39.77;36.27;;;;;;;;;;5073374;28;20419;-86
2021/10/28 20:14:52;;;;;;;47.57;42.67;;;;;;;;;;5073568;28;20919;-86
2021/10/28 20:20:07;;;;;;;43.00;38.93;;;;;;;;;;5073410;28;20559;-86
2021/10/28 20:22:36;;;;;;;41.30;37.57;;;;;;;;;;5073181;28;20502;-87
2021/10/28 20:25:04;;;;;;;44.87;40.33;;;;;;;;;;5073605;28;20482;-87
2021/10/28 20:27:31;;;;;;;39.50;35.70;;;;;;;;;;5073297;28;20450;-87
2021/10/28 20:29:58;;;;;;;41.83;37.77;;;;;;;;;;5073686;28;20426;-87
2021/10/28 20:32:26;;;;;;;40.67;36.83;;;;;;;;;;5073432;28;21009;-86
2021/10/28 20:35:07;;;;;;;40.43;36.63;;;;;;;;;;5073269;28;20417;-87
2021/10/28 20:37:37;;;;;;;42.80;38.93;;;;;;;;;;5073720;28;20487;-87
2021/10/28 20:40:05;;;;;;;40.77;36.93;;;;;;;;;;5077310;28;20416;-87
2021/10/28 20:42:39;;;;;;;39.27;35.77;;;;;;;;;;5077339;28;20442;-87
2021/10/28 20:45:08;;;;;;;38.00;34.67;;;;;;;;;;5077544;28;20411;-86
2021/10/28 20:47:36;;;;;;;39.60;35.80;;;;;;;;;;5077291;28;20461;-87
2021/10/28 20:50:04;;;;;;;40.50;36.90;;;;;;;;;;5077557;28;20883;-86
2021/10/28 20:52:33;;;;;;;40.53;36.83;;;;;;;;;;5076937;28;20416;-85
2021/10/28 20:55:02;;;;;;;38.57;35.10;;;;;;;;;;5077234;28;20473;-86
2021/10/28 20:57:30;;;;;;;40.97;37.33;;;;;;;;;;5077061;28;20476;-85
2021/10/28 20:59:57;;;;;;;40.00;36.30;;;;;;;;;;5076643;28;20456;-86
2021/10/28 21:02:25;;;;;;;40.17;36.60;;;;;;;;;;5076513;28;20423;-86
2021/10/28 21:04:52;;;;;;;38.97;35.63;;;;;;;;;;5076859;28;20416;-87
2021/10/28 21:07:20;;;;;;;36.27;33.13;;;;;;;;;;5075417;28;20447;-86
2021/10/28 21:09:47;;;;;;;37.53;34.23;;;;;;;;;;5076601;28;20443;-86
2021/10/28 21:12:16;;;;;;;38.20;34.90;;;;;;;;;;5076453;28;20431;-86
2021/10/28 21:14:43;;;;;;;37.83;34.63;;;;;;;;;;5076534;28;20436;-86
2021/10/28 21:17:11;;;;;;;36.50;33.10;;;;;;;;;;5076473;28;20480;-87
2021/10/28 21:19:38;;;;;;;37.63;34.23;;;;;;;;;;5076656;28;20776;-87
2021/10/28 21:22:05;;;;;;;39.97;36.07;;;;;;;;;;5076441;28;20433;-87
2021/10/28 21:24:35;;;;;;;37.73;34.33;;;;;;;;;;5076684;28;20440;-87
2021/10/28 21:27:03;;;;;;;35.23;32.33;;;;;;;;;;5076592;28;20533;-87
2021/10/28 21:29:33;;;;;;;37.17;33.87;;;;;;;;;;5076425;28;20436;-88
2021/10/28 21:32:01;;;;;;;37.23;34.00;;;;;;;;;;5076402;28;20475;-87
2021/10/28 21:34:29;;;;;;;38.30;34.90;;;;;;;;;;5076495;28;20445;-86
2021/10/28 21:36:56;;;;;;;37.80;34.20;;;;;;;;;;5076030;28;20452;-87
2021/10/28 21:39:24;;;;;;;35.30;32.20;;;;;;;;;;5076318;28;20492;-87
2021/10/28 21:41:51;;;;;;;37.57;34.20;;;;;;;;;;5076557;28;20795;-87
2021/10/28 21:44:18;;;;;;;36.00;32.97;;;;;;;;;;5076180;28;20815;-87
2021/10/28 21:46:48;;;;;;;37.13;33.67;;;;;;;;;;5076394;28;20523;-87
2021/10/28 21:49:16;;;;;;;36.30;32.90;;;;;;;;;;5076114;28;20422;-90
2021/10/28 21:51:44;;;;;;;36.40;33.20;;;;;;;;;;5076741;28;20443;-91
2021/10/28 21:54:29;;;;;;;36.50;33.10;;;;;;;;;;5076234;28;20801;-92
2021/10/28 21:57:00;;;;;;;35.07;32.17;;;;;;;;;;5076043;28;20448;-90
2021/10/28 22:02:25;;;;;;;35.93;32.90;;;;;;;;;;5075531;28;20411;-91
2021/10/28 22:05:09;;;;;;;36.17;32.80;;;;;;;;;;5075884;28;20444;-91
2021/10/28 22:24:21;;;;;;;32.97;30.00;;;;;;;;;;5075617;28;20414;-90
2021/10/28 22:26:49;;;;;;;28.70;26.40;;;;;;;;;;5074227;28;20902;-92
2021/10/28 22:29:18;;;;;;;32.77;30.07;;;;;;;;;;5075488;28;20445;-92
2021/10/28 22:31:45;;;;;;;32.33;29.33;;;;;;;;;;5075363;28;20423;-91
2021/10/28 22:34:16;;;;;;;32.33;29.70;;;;;;;;;;5075714;28;20833;-91
2021/10/28 22:36:45;;;;;;;32.07;29.33;;;;;;;;;;5075519;28;20441;-91
2021/10/28 22:39:18;;;;;;;31.77;29.10;;;;;;;;;;5075162;28;20591;-91
2021/10/28 22:41:45;;;;;;;31.73;29.13;;;;;;;;;;5075427;28;20443;-92
2021/10/28 22:44:13;;;;;;;31.93;29.43;;;;;;;;;;5075464;28;20454;-92
2021/10/28 22:46:41;;;;;;;31.95;29.27;;;;;;;;;;5074921;28;20423;-92
2021/10/28 22:49:08;;;;;;;31.13;28.63;;;;;;;;;;5074988;28;20636;-91
2021/10/28 22:51:37;;;;;;;30.53;27.77;;;;;;;;;;5074958;28;20440;-92
2021/10/28 22:54:05;;;;;;;32.13;29.20;;;;;;;;;;5075149;28;20452;-92
2021/10/28 22:56:32;;;;;;;30.30;27.47;;;;;;;;;;5074946;28;20423;-92
2021/10/28 22:59:03;;;;;;;30.13;27.80;;;;;;;;;;5074908;28;20521;-92